sensor_id;sensor_type;location;lat;lon;timestamp;P1;durP1;ratioP1;P2;durP2;ratioP2
52984;SDS011;40499;47.830;19.026;2022-11-11T00:01:52;24.48;;;10.70;;
52984;SDS011;40499;47.830;19.026;2022-11-11T00:04:18;23.60;;;10.43;;
52984;SDS011;40499;47.830;19.026;2022-11-11T00:06:43;26.63;;;11.32;;
52984;SDS011;40499;47.830;19.026;2022-11-11T00:09:09;25.10;;;11.15;;
52984;SDS011;40499;47.830;19.026;2022-11-11T00:11:35;27.80;;;12.68;;
52984;SDS011;40499;47.830;19.026;2022-11-11T00:14:01;26.10;;;12.75;;
52984;SDS011;40499;47.830;19.026;2022-11-11T00:16:26;32.45;;;13.98;;
52984;SDS011;40499;47.830;19.026;2022-11-11T00:19:11;31.65;;;14.27;;
52984;SDS011;40499;47.830;19.026;2022-11-11T00:21:55;31.67;;;14.32;;
52984;SDS011;40499;47.830;19.026;2022-11-11T00:24:39;32.00;;;14.73;;
52984;SDS011;40499;47.830;19.026;2022-11-11T00:27:23;29.48;;;13.77;;
52984;SDS011;40499;47.830;19.026;2022-11-11T00:29:49;34.42;;;14.80;;
52984;SDS011;40499;47.830;19.026;2022-11-11T00:32:14;29.08;;;13.45;;
52984;SDS011;40499;47.830;19.026;2022-11-11T00:34:50;28.40;;;13.82;;
52984;SDS011;40499;47.830;19.026;2022-11-11T00:37:35;32.55;;;14.68;;
52984;SDS011;40499;47.830;19.026;2022-11-11T00:40:00;29.60;;;13.50;;
52984;SDS011;40499;47.830;19.026;2022-11-11T00:42:25;35.22;;;13.52;;
52984;SDS011;40499;47.830;19.026;2022-11-11T00:44:51;31.05;;;13.85;;
52984;SDS011;40499;47.830;19.026;2022-11-11T00:47:16;27.92;;;13.40;;
52984;SDS011;40499;47.830;19.026;2022-11-11T00:50:00;28.85;;;13.38;;
52984;SDS011;40499;47.830;19.026;2022-11-11T00:52:45;33.28;;;14.13;;
52984;SDS011;40499;47.830;19.026;2022-11-11T00:55:11;33.83;;;15.20;;
52984;SDS011;40499;47.830;19.026;2022-11-11T00:57:36;27.83;;;12.93;;
52984;SDS011;40499;47.830;19.026;2022-11-11T01:00:02;25.90;;;11.75;;
52984;SDS011;40499;47.830;19.026;2022-11-11T01:02:27;23.27;;;11.30;;
52984;SDS011;40499;47.830;19.026;2022-11-11T01:04:52;28.37;;;13.10;;
52984;SDS011;40499;47.830;19.026;2022-11-11T01:07:17;31.10;;;14.23;;
52984;SDS011;40499;47.830;19.026;2022-11-11T01:09:43;28.70;;;13.65;;
52984;SDS011;40499;47.830;19.026;2022-11-11T01:12:08;30.70;;;14.60;;
52984;SDS011;40499;47.830;19.026;2022-11-11T01:14:33;28.95;;;13.57;;
52984;SDS011;40499;47.830;19.026;2022-11-11T01:16:58;32.43;;;13.10;;
52984;SDS011;40499;47.830;19.026;2022-11-11T01:19:24;33.90;;;14.10;;
52984;SDS011;40499;47.830;19.026;2022-11-11T01:21:49;30.20;;;12.93;;
52984;SDS011;40499;47.830;19.026;2022-11-11T01:24:14;27.73;;;13.03;;
52984;SDS011;40499;47.830;19.026;2022-11-11T01:26:39;25.67;;;12.97;;
52984;SDS011;40499;47.830;19.026;2022-11-11T01:29:04;30.33;;;13.30;;
52984;SDS011;40499;47.830;19.026;2022-11-11T01:31:30;31.13;;;12.47;;
52984;SDS011;40499;47.830;19.026;2022-11-11T01:33:55;33.53;;;13.00;;
52984;SDS011;40499;47.830;19.026;2022-11-11T01:36:21;29.90;;;12.55;;
52984;SDS011;40499;47.830;19.026;2022-11-11T01:38:47;26.27;;;12.73;;
52984;SDS011;40499;47.830;19.026;2022-11-11T01:41:14;27.92;;;13.20;;
52984;SDS011;40499;47.830;19.026;2022-11-11T01:44:02;30.23;;;13.68;;
52984;SDS011;40499;47.830;19.026;2022-11-11T01:46:33;27.08;;;11.70;;
52984;SDS011;40499;47.830;19.026;2022-11-11T01:49:08;29.20;;;12.73;;
52984;SDS011;40499;47.830;19.026;2022-11-11T01:54:13;27.38;;;13.20;;
52984;SDS011;40499;47.830;19.026;2022-11-11T01:56:38;28.38;;;13.23;;
52984;SDS011;40499;47.830;19.026;2022-11-11T01:59:06;30.33;;;13.13;;
52984;SDS011;40499;47.830;19.026;2022-11-11T02:01:33;28.70;;;13.48;;
52984;SDS011;40499;47.830;19.026;2022-11-11T02:03:58;30.65;;;13.63;;
52984;SDS011;40499;47.830;19.026;2022-11-11T02:06:43;27.67;;;13.23;;
52984;SDS011;40499;47.830;19.026;2022-11-11T02:09:08;31.25;;;13.40;;
52984;SDS011;40499;47.830;19.026;2022-11-11T02:11:34;34.35;;;14.25;;
52984;SDS011;40499;47.830;19.026;2022-11-11T02:14:18;29.52;;;13.30;;
52984;SDS011;40499;47.830;19.026;2022-11-11T02:17:07;29.77;;;13.95;;
52984;SDS011;40499;47.830;19.026;2022-11-11T02:19:54;25.85;;;11.88;;
52984;SDS011;40499;47.830;19.026;2022-11-11T02:25:05;31.05;;;13.73;;
52984;SDS011;40499;47.830;19.026;2022-11-11T02:27:31;31.52;;;13.80;;
52984;SDS011;40499;47.830;19.026;2022-11-11T02:29:59;31.50;;;13.35;;
52984;SDS011;40499;47.830;19.026;2022-11-11T02:32:25;28.98;;;13.55;;
52984;SDS011;40499;47.830;19.026;2022-11-11T02:34:50;30.48;;;13.52;;
52984;SDS011;40499;47.830;19.026;2022-11-11T02:37:17;31.52;;;13.57;;
52984;SDS011;40499;47.830;19.026;2022-11-11T02:39:44;28.48;;;14.00;;
52984;SDS011;40499;47.830;19.026;2022-11-11T02:42:09;34.88;;;14.98;;
52984;SDS011;40499;47.830;19.026;2022-11-11T02:44:37;34.05;;;14.98;;
52984;SDS011;40499;47.830;19.026;2022-11-11T02:47:03;30.35;;;13.77;;
52984;SDS011;40499;47.830;19.026;2022-11-11T02:49:28;40.97;;;18.75;;
52984;SDS011;40499;47.830;19.026;2022-11-11T02:51:54;35.55;;;14.98;;
52984;SDS011;40499;47.830;19.026;2022-11-11T02:54:19;35.42;;;15.05;;
52984;SDS011;40499;47.830;19.026;2022-11-11T02:56:44;31.67;;;14.77;;
52984;SDS011;40499;47.830;19.026;2022-11-11T02:59:28;31.02;;;13.27;;
52984;SDS011;40499;47.830;19.026;2022-11-11T03:01:53;37.43;;;15.17;;
52984;SDS011;40499;47.830;19.026;2022-11-11T03:04:18;33.77;;;13.53;;
52984;SDS011;40499;47.830;19.026;2022-11-11T03:06:44;34.95;;;14.85;;
52984;SDS011;40499;47.830;19.026;2022-11-11T03:09:09;37.10;;;15.70;;
52984;SDS011;40499;47.830;19.026;2022-11-11T03:11:34;40.30;;;16.93;;
52984;SDS011;40499;47.830;19.026;2022-11-11T03:14:02;36.53;;;15.40;;
52984;SDS011;40499;47.830;19.026;2022-11-11T03:16:27;39.80;;;16.70;;
52984;SDS011;40499;47.830;19.026;2022-11-11T03:19:11;29.40;;;14.43;;
52984;SDS011;40499;47.830;19.026;2022-11-11T03:21:36;30.83;;;14.32;;
52984;SDS011;40499;47.830;19.026;2022-11-11T03:24:02;29.58;;;12.60;;
52984;SDS011;40499;47.830;19.026;2022-11-11T03:26:27;34.75;;;14.35;;
52984;SDS011;40499;47.830;19.026;2022-11-11T03:28:52;34.95;;;14.57;;
52984;SDS011;40499;47.830;19.026;2022-11-11T03:31:17;33.63;;;13.68;;
52984;SDS011;40499;47.830;19.026;2022-11-11T03:33:43;32.37;;;12.97;;
52984;SDS011;40499;47.830;19.026;2022-11-11T03:36:08;34.85;;;15.80;;
52984;SDS011;40499;47.830;19.026;2022-11-11T03:38:33;31.17;;;13.45;;
52984;SDS011;40499;47.830;19.026;2022-11-11T03:40:59;40.25;;;15.43;;
52984;SDS011;40499;47.830;19.026;2022-11-11T03:43:25;33.60;;;14.55;;
52984;SDS011;40499;47.830;19.026;2022-11-11T03:45:51;38.38;;;15.32;;
52984;SDS011;40499;47.830;19.026;2022-11-11T03:48:17;35.63;;;15.23;;
52984;SDS011;40499;47.830;19.026;2022-11-11T03:50:42;33.72;;;13.43;;
52984;SDS011;40499;47.830;19.026;2022-11-11T03:53:07;33.83;;;14.45;;
52984;SDS011;40499;47.830;19.026;2022-11-11T03:55:33;33.15;;;15.02;;
52984;SDS011;40499;47.830;19.026;2022-11-11T03:57:58;29.00;;;14.57;;
52984;SDS011;40499;47.830;19.026;2022-11-11T04:00:24;31.77;;;14.30;;
52984;SDS011;40499;47.830;19.026;2022-11-11T04:02:49;29.13;;;13.15;;
52984;SDS011;40499;47.830;19.026;2022-11-11T04:05:34;26.92;;;12.60;;
52984;SDS011;40499;47.830;19.026;2022-11-11T04:08:18;27.40;;;12.82;;
52984;SDS011;40499;47.830;19.026;2022-11-11T04:11:03;27.58;;;12.05;;
52984;SDS011;40499;47.830;19.026;2022-11-11T04:13:29;27.23;;;12.75;;
52984;SDS011;40499;47.830;19.026;2022-11-11T04:16:13;28.73;;;13.13;;
52984;SDS011;40499;47.830;19.026;2022-11-11T04:18:38;28.15;;;12.02;;
52984;SDS011;40499;47.830;19.026;2022-11-11T04:21:23;30.15;;;10.85;;
52984;SDS011;40499;47.830;19.026;2022-11-11T04:24:07;22.48;;;11.55;;
52984;SDS011;40499;47.830;19.026;2022-11-11T04:26:55;25.58;;;12.00;;
52984;SDS011;40499;47.830;19.026;2022-11-11T04:29:21;27.08;;;12.43;;
52984;SDS011;40499;47.830;19.026;2022-11-11T04:31:52;25.40;;;12.00;;
52984;SDS011;40499;47.830;19.026;2022-11-11T04:34:36;25.42;;;11.20;;
52984;SDS011;40499;47.830;19.026;2022-11-11T04:37:01;28.43;;;12.30;;
52984;SDS011;40499;47.830;19.026;2022-11-11T04:39:26;26.23;;;12.27;;
52984;SDS011;40499;47.830;19.026;2022-11-11T04:42:10;23.38;;;11.25;;
52984;SDS011;40499;47.830;19.026;2022-11-11T04:44:35;23.40;;;10.87;;
52984;SDS011;40499;47.830;19.026;2022-11-11T04:47:19;25.75;;;11.43;;
52984;SDS011;40499;47.830;19.026;2022-11-11T04:49:44;21.80;;;10.63;;
52984;SDS011;40499;47.830;19.026;2022-11-11T04:52:09;31.02;;;12.10;;
52984;SDS011;40499;47.830;19.026;2022-11-11T04:54:50;27.30;;;11.05;;
52984;SDS011;40499;47.830;19.026;2022-11-11T04:57:34;22.98;;;10.07;;
52984;SDS011;40499;47.830;19.026;2022-11-11T05:00:02;22.20;;;10.98;;
52984;SDS011;40499;47.830;19.026;2022-11-11T05:02:28;23.95;;;11.32;;
52984;SDS011;40499;47.830;19.026;2022-11-11T05:05:11;26.02;;;12.13;;
52984;SDS011;40499;47.830;19.026;2022-11-11T05:07:37;29.20;;;11.82;;
52984;SDS011;40499;47.830;19.026;2022-11-11T05:10:21;24.08;;;11.88;;
52984;SDS011;40499;47.830;19.026;2022-11-11T05:12:46;25.48;;;12.75;;
52984;SDS011;40499;47.830;19.026;2022-11-11T05:15:11;25.80;;;12.05;;
52984;SDS011;40499;47.830;19.026;2022-11-11T05:17:55;27.67;;;12.57;;
52984;SDS011;40499;47.830;19.026;2022-11-11T05:20:39;30.80;;;14.00;;
52984;SDS011;40499;47.830;19.026;2022-11-11T05:23:23;26.52;;;12.52;;
52984;SDS011;40499;47.830;19.026;2022-11-11T05:26:08;27.60;;;13.30;;
52984;SDS011;40499;47.830;19.026;2022-11-11T05:28:33;24.03;;;11.73;;
52984;SDS011;40499;47.830;19.026;2022-11-11T05:30:58;27.83;;;13.10;;
52984;SDS011;40499;47.830;19.026;2022-11-11T05:33:24;25.53;;;11.80;;
52984;SDS011;40499;47.830;19.026;2022-11-11T05:35:49;24.93;;;10.93;;
52984;SDS011;40499;47.830;19.026;2022-11-11T05:38:14;22.88;;;11.90;;
52984;SDS011;40499;47.830;19.026;2022-11-11T05:40:46;23.02;;;11.57;;
52984;SDS011;40499;47.830;19.026;2022-11-11T05:43:11;24.58;;;11.48;;
52984;SDS011;40499;47.830;19.026;2022-11-11T05:45:36;22.83;;;11.43;;
52984;SDS011;40499;47.830;19.026;2022-11-11T05:48:02;23.00;;;10.95;;
52984;SDS011;40499;47.830;19.026;2022-11-11T05:50:27;22.05;;;10.40;;
52984;SDS011;40499;47.830;19.026;2022-11-11T05:52:52;21.83;;;10.50;;
52984;SDS011;40499;47.830;19.026;2022-11-11T05:55:17;25.58;;;12.00;;
52984;SDS011;40499;47.830;19.026;2022-11-11T05:57:43;21.97;;;11.00;;
52984;SDS011;40499;47.830;19.026;2022-11-11T06:00:08;24.90;;;11.85;;
52984;SDS011;40499;47.830;19.026;2022-11-11T06:02:34;27.60;;;12.55;;
52984;SDS011;40499;47.830;19.026;2022-11-11T06:04:59;23.35;;;13.10;;
52984;SDS011;40499;47.830;19.026;2022-11-11T06:07:24;23.80;;;12.73;;
52984;SDS011;40499;47.830;19.026;2022-11-11T06:09:50;24.80;;;11.33;;
52984;SDS011;40499;47.830;19.026;2022-11-11T06:12:15;24.25;;;11.60;;
52984;SDS011;40499;47.830;19.026;2022-11-11T06:14:40;23.50;;;12.30;;
52984;SDS011;40499;47.830;19.026;2022-11-11T06:17:05;23.10;;;12.00;;
52984;SDS011;40499;47.830;19.026;2022-11-11T06:19:31;20.50;;;11.03;;
52984;SDS011;40499;47.830;19.026;2022-11-11T06:21:56;22.95;;;11.60;;
52984;SDS011;40499;47.830;19.026;2022-11-11T06:24:21;24.17;;;12.47;;
52984;SDS011;40499;47.830;19.026;2022-11-11T06:26:46;25.75;;;12.82;;
52984;SDS011;40499;47.830;19.026;2022-11-11T06:29:12;23.27;;;11.93;;
52984;SDS011;40499;47.830;19.026;2022-11-11T06:31:37;24.40;;;12.43;;
52984;SDS011;40499;47.830;19.026;2022-11-11T06:34:02;24.45;;;12.50;;
52984;SDS011;40499;47.830;19.026;2022-11-11T06:36:27;23.83;;;11.80;;
52984;SDS011;40499;47.830;19.026;2022-11-11T06:38:53;24.00;;;12.57;;
52984;SDS011;40499;47.830;19.026;2022-11-11T06:41:18;24.33;;;12.07;;
52984;SDS011;40499;47.830;19.026;2022-11-11T06:43:44;21.30;;;11.23;;
52984;SDS011;40499;47.830;19.026;2022-11-11T06:46:30;26.15;;;12.57;;
52984;SDS011;40499;47.830;19.026;2022-11-11T06:48:54;25.77;;;12.55;;
52984;SDS011;40499;47.830;19.026;2022-11-11T06:51:20;26.05;;;13.13;;
52984;SDS011;40499;47.830;19.026;2022-11-11T06:53:45;25.08;;;12.70;;
52984;SDS011;40499;47.830;19.026;2022-11-11T06:56:10;30.42;;;14.02;;
52984;SDS011;40499;47.830;19.026;2022-11-11T06:58:38;27.13;;;13.55;;
52984;SDS011;40499;47.830;19.026;2022-11-11T07:01:04;26.00;;;12.45;;
52984;SDS011;40499;47.830;19.026;2022-11-11T07:03:29;29.77;;;13.27;;
52984;SDS011;40499;47.830;19.026;2022-11-11T07:05:55;26.02;;;12.27;;
52984;SDS011;40499;47.830;19.026;2022-11-11T07:08:20;28.30;;;14.80;;
52984;SDS011;40499;47.830;19.026;2022-11-11T07:10:46;29.80;;;14.87;;
52984;SDS011;40499;47.830;19.026;2022-11-11T07:13:12;36.35;;;16.63;;
52984;SDS011;40499;47.830;19.026;2022-11-11T07:15:37;34.05;;;16.13;;
52984;SDS011;40499;47.830;19.026;2022-11-11T07:18:02;35.27;;;17.13;;
52984;SDS011;40499;47.830;19.026;2022-11-11T07:20:28;35.83;;;17.08;;
52984;SDS011;40499;47.830;19.026;2022-11-11T07:22:53;31.52;;;15.82;;
52984;SDS011;40499;47.830;19.026;2022-11-11T07:25:18;33.67;;;16.67;;
52984;SDS011;40499;47.830;19.026;2022-11-11T07:27:43;32.07;;;14.90;;
52984;SDS011;40499;47.830;19.026;2022-11-11T07:30:09;33.77;;;16.80;;
52984;SDS011;40499;47.830;19.026;2022-11-11T07:32:35;36.85;;;17.60;;
52984;SDS011;40499;47.830;19.026;2022-11-11T07:35:00;37.13;;;17.10;;
52984;SDS011;40499;47.830;19.026;2022-11-11T07:37:25;31.75;;;15.45;;
52984;SDS011;40499;47.830;19.026;2022-11-11T07:39:51;37.75;;;16.45;;
52984;SDS011;40499;47.830;19.026;2022-11-11T07:42:16;35.35;;;17.33;;
52984;SDS011;40499;47.830;19.026;2022-11-11T07:44:41;38.63;;;18.23;;
52984;SDS011;40499;47.830;19.026;2022-11-11T07:47:07;33.70;;;16.90;;
52984;SDS011;40499;47.830;19.026;2022-11-11T07:49:32;33.17;;;16.20;;
52984;SDS011;40499;47.830;19.026;2022-11-11T07:51:57;35.83;;;17.23;;
52984;SDS011;40499;47.830;19.026;2022-11-11T07:54:23;35.35;;;17.23;;
52984;SDS011;40499;47.830;19.026;2022-11-11T07:56:48;40.40;;;17.50;;
52984;SDS011;40499;47.830;19.026;2022-11-11T07:59:13;41.33;;;19.13;;
52984;SDS011;40499;47.830;19.026;2022-11-11T08:01:38;43.83;;;19.27;;
52984;SDS011;40499;47.830;19.026;2022-11-11T08:04:04;40.38;;;18.75;;
52984;SDS011;40499;47.830;19.026;2022-11-11T08:06:29;42.20;;;19.13;;
52984;SDS011;40499;47.830;19.026;2022-11-11T08:08:54;46.63;;;20.70;;
52984;SDS011;40499;47.830;19.026;2022-11-11T08:11:19;42.97;;;20.45;;
52984;SDS011;40499;47.830;19.026;2022-11-11T08:14:04;38.00;;;17.45;;
52984;SDS011;40499;47.830;19.026;2022-11-11T08:16:30;37.50;;;18.48;;
52984;SDS011;40499;47.830;19.026;2022-11-11T08:18:55;46.63;;;19.73;;
52984;SDS011;40499;47.830;19.026;2022-11-11T08:21:22;41.42;;;20.45;;
52984;SDS011;40499;47.830;19.026;2022-11-11T08:23:47;44.63;;;20.10;;
52984;SDS011;40499;47.830;19.026;2022-11-11T08:26:13;40.65;;;18.92;;
52984;SDS011;40499;47.830;19.026;2022-11-11T08:28:38;41.87;;;20.70;;
52984;SDS011;40499;47.830;19.026;2022-11-11T08:31:03;43.63;;;22.03;;
52984;SDS011;40499;47.830;19.026;2022-11-11T08:33:28;39.57;;;18.53;;
52984;SDS011;40499;47.830;19.026;2022-11-11T08:35:54;37.17;;;18.43;;
52984;SDS011;40499;47.830;19.026;2022-11-11T08:38:22;42.60;;;20.02;;
52984;SDS011;40499;47.830;19.026;2022-11-11T08:40:47;50.67;;;21.35;;
52984;SDS011;40499;47.830;19.026;2022-11-11T08:43:13;44.65;;;20.25;;
52984;SDS011;40499;47.830;19.026;2022-11-11T08:45:38;49.07;;;22.60;;
52984;SDS011;40499;47.830;19.026;2022-11-11T08:48:03;45.67;;;21.70;;
52984;SDS011;40499;47.830;19.026;2022-11-11T08:50:29;45.58;;;21.25;;
52984;SDS011;40499;47.830;19.026;2022-11-11T08:52:54;38.47;;;19.48;;
52984;SDS011;40499;47.830;19.026;2022-11-11T08:55:19;39.67;;;19.27;;
52984;SDS011;40499;47.830;19.026;2022-11-11T08:57:44;41.20;;;19.60;;
52984;SDS011;40499;47.830;19.026;2022-11-11T09:00:10;42.33;;;20.33;;
52984;SDS011;40499;47.830;19.026;2022-11-11T09:02:36;40.53;;;20.02;;
52984;SDS011;40499;47.830;19.026;2022-11-11T09:05:02;36.20;;;18.05;;
52984;SDS011;40499;47.830;19.026;2022-11-11T09:07:27;35.53;;;18.02;;
52984;SDS011;40499;47.830;19.026;2022-11-11T09:09:52;36.20;;;18.35;;
52984;SDS011;40499;47.830;19.026;2022-11-11T09:12:17;39.40;;;18.77;;
52984;SDS011;40499;47.830;19.026;2022-11-11T09:14:43;42.17;;;19.85;;
52984;SDS011;40499;47.830;19.026;2022-11-11T09:17:08;37.83;;;19.65;;
52984;SDS011;40499;47.830;19.026;2022-11-11T09:19:33;30.60;;;17.23;;
52984;SDS011;40499;47.830;19.026;2022-11-11T09:21:58;40.47;;;19.87;;
52984;SDS011;40499;47.830;19.026;2022-11-11T09:24:24;43.45;;;20.60;;
52984;SDS011;40499;47.830;19.026;2022-11-11T09:26:49;41.13;;;21.07;;
52984;SDS011;40499;47.830;19.026;2022-11-11T09:29:14;41.90;;;19.67;;
52984;SDS011;40499;47.830;19.026;2022-11-11T09:31:40;37.00;;;19.90;;
52984;SDS011;40499;47.830;19.026;2022-11-11T09:34:05;39.20;;;19.20;;
52984;SDS011;40499;47.830;19.026;2022-11-11T09:36:31;39.30;;;19.95;;
52984;SDS011;40499;47.830;19.026;2022-11-11T09:38:56;36.63;;;18.85;;
52984;SDS011;40499;47.830;19.026;2022-11-11T09:43:56;35.73;;;19.17;;
52984;SDS011;40499;47.830;19.026;2022-11-11T09:49:01;33.87;;;16.80;;
52984;SDS011;40499;47.830;19.026;2022-11-11T09:51:31;33.15;;;17.45;;
52984;SDS011;40499;47.830;19.026;2022-11-11T09:54:04;29.02;;;14.63;;
52984;SDS011;40499;47.830;19.026;2022-11-11T09:56:31;32.85;;;17.80;;
52984;SDS011;40499;47.830;19.026;2022-11-11T10:01:40;28.27;;;16.40;;
52984;SDS011;40499;47.830;19.026;2022-11-11T10:06:40;30.02;;;15.55;;
52984;SDS011;40499;47.830;19.026;2022-11-11T10:09:17;27.13;;;14.57;;
52984;SDS011;40499;47.830;19.026;2022-11-11T10:11:50;29.55;;;15.13;;
52984;SDS011;40499;47.830;19.026;2022-11-11T10:14:17;28.00;;;14.07;;
52984;SDS011;40499;47.830;19.026;2022-11-11T10:16:47;24.20;;;14.38;;
52984;SDS011;40499;47.830;19.026;2022-11-11T10:19:22;24.23;;;13.82;;
52984;SDS011;40499;47.830;19.026;2022-11-11T10:21:51;27.08;;;14.25;;
52984;SDS011;40499;47.830;19.026;2022-11-11T10:24:21;22.15;;;12.02;;
52984;SDS011;40499;47.830;19.026;2022-11-11T10:26:50;23.85;;;12.77;;
52984;SDS011;40499;47.830;19.026;2022-11-11T10:29:19;21.42;;;11.45;;
52984;SDS011;40499;47.830;19.026;2022-11-11T10:31:46;28.23;;;14.23;;
52984;SDS011;40499;47.830;19.026;2022-11-11T10:34:15;24.85;;;12.95;;
52984;SDS011;40499;47.830;19.026;2022-11-11T10:36:52;29.63;;;14.30;;
52984;SDS011;40499;47.830;19.026;2022-11-11T10:39:23;23.17;;;14.13;;
52984;SDS011;40499;47.830;19.026;2022-11-11T10:41:50;26.33;;;14.02;;
52984;SDS011;40499;47.830;19.026;2022-11-11T10:46:57;25.98;;;14.02;;
52984;SDS011;40499;47.830;19.026;2022-11-11T10:49:26;28.10;;;14.93;;
52984;SDS011;40499;47.830;19.026;2022-11-11T10:52:40;26.20;;;14.27;;
52984;SDS011;40499;47.830;19.026;2022-11-11T10:54:40;24.60;;;14.02;;
52984;SDS011;40499;47.830;19.026;2022-11-11T10:57:14;25.30;;;14.75;;
52984;SDS011;40499;47.830;19.026;2022-11-11T10:59:46;30.45;;;15.63;;
52984;SDS011;40499;47.830;19.026;2022-11-11T11:02:23;25.55;;;14.40;;
52984;SDS011;40499;47.830;19.026;2022-11-11T11:04:52;27.30;;;15.32;;
52984;SDS011;40499;47.830;19.026;2022-11-11T11:07:30;29.05;;;14.88;;
52984;SDS011;40499;47.830;19.026;2022-11-11T11:10:05;26.55;;;14.05;;
52984;SDS011;40499;47.830;19.026;2022-11-11T11:12:37;26.85;;;15.32;;
52984;SDS011;40499;47.830;19.026;2022-11-11T11:15:05;31.60;;;15.18;;
52984;SDS011;40499;47.830;19.026;2022-11-11T11:17:37;28.58;;;14.68;;
52984;SDS011;40499;47.830;19.026;2022-11-11T11:22:48;25.65;;;14.32;;
52984;SDS011;40499;47.830;19.026;2022-11-11T11:25:13;28.33;;;14.52;;
52984;SDS011;40499;47.830;19.026;2022-11-11T11:27:39;31.60;;;15.80;;
52984;SDS011;40499;47.830;19.026;2022-11-11T11:30:17;27.67;;;15.00;;
52984;SDS011;40499;47.830;19.026;2022-11-11T11:32:59;31.95;;;15.82;;
52984;SDS011;40499;47.830;19.026;2022-11-11T11:35:38;33.58;;;16.15;;
52984;SDS011;40499;47.830;19.026;2022-11-11T11:38:04;27.33;;;14.30;;
52984;SDS011;40499;47.830;19.026;2022-11-11T11:40:46;21.70;;;13.82;;
52984;SDS011;40499;47.830;19.026;2022-11-11T11:43:26;25.85;;;14.73;;
52984;SDS011;40499;47.830;19.026;2022-11-11T11:45:55;26.70;;;14.35;;
52984;SDS011;40499;47.830;19.026;2022-11-11T11:48:34;26.52;;;15.43;;
52984;SDS011;40499;47.830;19.026;2022-11-11T12:09:23;27.17;;;12.77;;
52984;SDS011;40499;47.830;19.026;2022-11-11T12:11:25;27.10;;;16.05;;
52984;SDS011;40499;47.830;19.026;2022-11-11T12:16:32;28.48;;;16.90;;
52984;SDS011;40499;47.830;19.026;2022-11-11T12:21:57;28.13;;;14.57;;
52984;SDS011;40499;47.830;19.026;2022-11-11T12:30:41;32.67;;;16.08;;
52984;SDS011;40499;47.830;19.026;2022-11-11T12:37:49;31.00;;;16.17;;
52984;SDS011;40499;47.830;19.026;2022-11-11T12:40:32;30.35;;;15.77;;
52984;SDS011;40499;47.830;19.026;2022-11-11T12:43:02;25.67;;;14.43;;
52984;SDS011;40499;47.830;19.026;2022-11-11T12:45:35;30.73;;;15.30;;
52984;SDS011;40499;47.830;19.026;2022-11-11T12:48:04;22.58;;;13.27;;
52984;SDS011;40499;47.830;19.026;2022-11-11T12:55:39;27.10;;;12.50;;
52984;SDS011;40499;47.830;19.026;2022-11-11T12:58:24;24.23;;;11.95;;
52984;SDS011;40499;47.830;19.026;2022-11-11T13:00:54;23.48;;;12.45;;
52984;SDS011;40499;47.830;19.026;2022-11-11T13:06:00;21.60;;;12.93;;
52984;SDS011;40499;47.830;19.026;2022-11-11T13:15:46;23.03;;;13.03;;
52984;SDS011;40499;47.830;19.026;2022-11-11T13:18:13;23.98;;;13.07;;
52984;SDS011;40499;47.830;19.026;2022-11-11T13:23:10;25.83;;;13.45;;
52984;SDS011;40499;47.830;19.026;2022-11-11T13:25:36;31.02;;;15.13;;
52984;SDS011;40499;47.830;19.026;2022-11-11T13:28:07;30.33;;;14.75;;
52984;SDS011;40499;47.830;19.026;2022-11-11T13:33:26;21.58;;;12.90;;
52984;SDS011;40499;47.830;19.026;2022-11-11T13:35:59;20.55;;;11.48;;
52984;SDS011;40499;47.830;19.026;2022-11-11T13:38:33;23.65;;;12.38;;
52984;SDS011;40499;47.830;19.026;2022-11-11T13:41:03;22.13;;;11.90;;
52984;SDS011;40499;47.830;19.026;2022-11-11T13:43:39;20.80;;;11.15;;
52984;SDS011;40499;47.830;19.026;2022-11-11T13:46:05;20.88;;;11.50;;
52984;SDS011;40499;47.830;19.026;2022-11-11T13:48:37;23.95;;;12.65;;
52984;SDS011;40499;47.830;19.026;2022-11-11T13:53:55;25.10;;;15.05;;
52984;SDS011;40499;47.830;19.026;2022-11-11T13:56:35;21.23;;;11.80;;
52984;SDS011;40499;47.830;19.026;2022-11-11T13:59:00;23.08;;;12.13;;
52984;SDS011;40499;47.830;19.026;2022-11-11T14:01:33;20.77;;;12.48;;
52984;SDS011;40499;47.830;19.026;2022-11-11T14:04:00;23.77;;;13.57;;
52984;SDS011;40499;47.830;19.026;2022-11-11T14:08:51;26.20;;;14.07;;
52984;SDS011;40499;47.830;19.026;2022-11-11T14:11:38;25.63;;;13.13;;
52984;SDS011;40499;47.830;19.026;2022-11-11T14:26:58;27.38;;;15.25;;
52984;SDS011;40499;47.830;19.026;2022-11-11T14:29:26;25.10;;;14.80;;
52984;SDS011;40499;47.830;19.026;2022-11-11T14:32:09;24.80;;;13.32;;
52984;SDS011;40499;47.830;19.026;2022-11-11T14:39:38;20.80;;;13.88;;
52984;SDS011;40499;47.830;19.026;2022-11-11T14:42:40;27.15;;;14.40;;
52984;SDS011;40499;47.830;19.026;2022-11-11T14:44:50;29.25;;;14.63;;
52984;SDS011;40499;47.830;19.026;2022-11-11T14:53:07;23.83;;;14.67;;
52984;SDS011;40499;47.830;19.026;2022-11-11T14:57:38;28.92;;;14.50;;
52984;SDS011;40499;47.830;19.026;2022-11-11T15:02:49;26.42;;;13.70;;
52984;SDS011;40499;47.830;19.026;2022-11-11T15:10:37;25.88;;;12.30;;
52984;SDS011;40499;47.830;19.026;2022-11-11T15:15:56;26.33;;;14.50;;
52984;SDS011;40499;47.830;19.026;2022-11-11T15:21:19;33.75;;;14.88;;
52984;SDS011;40499;47.830;19.026;2022-11-11T15:23:51;29.02;;;16.02;;
52984;SDS011;40499;47.830;19.026;2022-11-11T15:29:03;42.33;;;18.73;;
52984;SDS011;40499;47.830;19.026;2022-11-11T15:38:55;29.90;;;16.10;;
52984;SDS011;40499;47.830;19.026;2022-11-11T15:41:26;25.92;;;13.68;;
52984;SDS011;40499;47.830;19.026;2022-11-11T15:43:52;24.67;;;13.40;;
52984;SDS011;40499;47.830;19.026;2022-11-11T15:46:23;25.25;;;13.70;;
52984;SDS011;40499;47.830;19.026;2022-11-11T15:48:49;21.90;;;12.82;;
52984;SDS011;40499;47.830;19.026;2022-11-11T15:51:29;24.00;;;13.02;;
52984;SDS011;40499;47.830;19.026;2022-11-11T15:54:17;27.55;;;12.73;;
52984;SDS011;40499;47.830;19.026;2022-11-11T15:56:43;24.52;;;13.13;;
52984;SDS011;40499;47.830;19.026;2022-11-11T15:59:20;23.40;;;12.57;;
52984;SDS011;40499;47.830;19.026;2022-11-11T16:01:46;29.15;;;15.98;;
52984;SDS011;40499;47.830;19.026;2022-11-11T16:04:13;24.98;;;14.35;;
52984;SDS011;40499;47.830;19.026;2022-11-11T16:06:40;26.23;;;13.68;;
52984;SDS011;40499;47.830;19.026;2022-11-11T16:09:05;29.38;;;14.98;;
52984;SDS011;40499;47.830;19.026;2022-11-11T16:11:31;29.58;;;15.23;;
52984;SDS011;40499;47.830;19.026;2022-11-11T16:14:02;27.95;;;15.68;;
52984;SDS011;40499;47.830;19.026;2022-11-11T16:16:30;23.38;;;13.23;;
52984;SDS011;40499;47.830;19.026;2022-11-11T16:18:57;28.50;;;13.70;;
52984;SDS011;40499;47.830;19.026;2022-11-11T16:21:34;24.63;;;14.32;;
52984;SDS011;40499;47.830;19.026;2022-11-11T16:24:10;28.77;;;13.90;;
52984;SDS011;40499;47.830;19.026;2022-11-11T16:26:39;26.58;;;13.98;;
52984;SDS011;40499;47.830;19.026;2022-11-11T16:29:08;23.80;;;13.68;;
52984;SDS011;40499;47.830;19.026;2022-11-11T16:31:37;26.48;;;14.88;;